createdAt,value
2023-02-19T00:01:43.532Z,102251.22
2023-02-19T00:04:17.851Z,102252.19
2023-02-19T00:06:46.278Z,102248.69
2023-02-19T00:09:15.453Z,102252.25
2023-02-19T00:11:44.423Z,102253.13
2023-02-19T00:14:15.875Z,102253.16
2023-02-19T00:16:42.988Z,102246.25
2023-02-19T00:19:14.311Z,102243.59
2023-02-19T00:21:41.611Z,102236.59
2023-02-19T00:24:11.967Z,102233.16
2023-02-19T00:26:40.803Z,102234.97
2023-02-19T00:29:09.537Z,102238.44
2023-02-19T00:31:36.760Z,102231.47
2023-02-19T00:34:05.981Z,102228.00
2023-02-19T00:36:36.095Z,102235.81
2023-02-19T00:39:04.688Z,102234.97
2023-02-19T00:41:32.677Z,102226.28
2023-02-19T00:44:02.129Z,102223.75
2023-02-19T00:46:33.327Z,102225.44
2023-02-19T00:49:01.287Z,102236.81
2023-02-19T00:51:33.523Z,102244.81
2023-02-19T00:54:00.727Z,102237.97
2023-02-19T00:56:28.218Z,102246.69
2023-02-19T00:58:56.834Z,102238.00
2023-02-19T01:01:24.083Z,102225.75
2023-02-19T01:03:52.195Z,102228.41
2023-02-19T01:06:20.983Z,102228.44
2023-02-19T01:08:48.803Z,102239.88
2023-02-19T01:11:16.532Z,102243.34
2023-02-19T01:13:43.952Z,102228.47
2023-02-19T01:16:18.072Z,102229.34
2023-02-19T01:18:46.156Z,102226.72
2023-02-19T01:21:16.184Z,102230.22
2023-02-19T01:23:44.173Z,102226.72
2023-02-19T01:26:15.127Z,102231.94
2023-02-19T01:28:42.761Z,102224.97
2023-02-19T01:31:13.972Z,102226.66
2023-02-19T01:33:45.283Z,102224.00
2023-02-19T01:36:12.809Z,102217.94
2023-02-19T01:38:40.439Z,102217.91
2023-02-19T01:41:10.536Z,102220.56
2023-02-19T01:44:07.944Z,102217.09
2023-02-19T01:46:41.367Z,102217.09
2023-02-19T01:49:14.749Z,102222.31
2023-02-19T01:51:47.452Z,102219.69
2023-02-19T01:54:17.333Z,102217.09
2023-02-19T01:56:48.765Z,102203.13
2023-02-19T01:59:18.101Z,102205.75
2023-02-19T02:01:45.409Z,102204.84
2023-02-19T02:04:14.903Z,102200.50
2023-02-19T02:06:52.208Z,102197.91
2023-02-19T02:09:39.294Z,102197.06
2023-02-19T02:12:07.145Z,102198.88
2023-02-19T02:14:37.315Z,102198.91
2023-02-19T02:17:36.732Z,102199.81
2023-02-19T02:20:44.309Z,102194.63
2023-02-19T02:23:20.256Z,102199.91
2023-02-19T02:26:08.843Z,102196.41
2023-02-19T02:28:42.399Z,102189.50
2023-02-19T02:31:25.825Z,102192.97
2023-02-19T02:34:07.637Z,102194.72
2023-02-19T02:36:39.183Z,102192.97
2023-02-19T02:39:11.616Z,102180.78
2023-02-19T02:42:14.596Z,102183.44
2023-02-19T02:45:04.688Z,102176.47
2023-02-19T02:47:41.214Z,102169.47
2023-02-19T02:50:26.468Z,102172.97
2023-02-19T02:53:18.775Z,102170.38
2023-02-19T02:55:49.688Z,102161.66
2023-02-19T02:58:17.923Z,102158.19
2023-02-19T03:01:10.511Z,102164.28
2023-02-19T03:03:39.931Z,102153.00
2023-02-19T03:06:11.825Z,102151.22
2023-02-19T03:09:00.010Z,102158.19
2023-02-19T03:11:47.127Z,102163.41
2023-02-19T03:14:38.929Z,102157.34
2023-02-19T03:17:34.174Z,102165.16
2023-02-19T03:20:07.634Z,102159.94
2023-02-19T03:22:37.853Z,102157.34
2023-02-19T03:25:38.280Z,102159.97
2023-02-19T03:28:08.748Z,102152.13
2023-02-19T03:30:40.456Z,102153.00
2023-02-19T03:33:14.119Z,102149.53
2023-02-19T03:35:47.457Z,102147.78
2023-02-19T03:38:26.698Z,102151.22
2023-02-19T03:40:57.016Z,102151.22
2023-02-19T03:43:38.643Z,102146.84
2023-02-19T03:46:13.905Z,102152.06
2023-02-19T03:48:50.961Z,102145.09
2023-02-19T03:51:44.006Z,102149.47
2023-02-19T03:54:35.231Z,102149.44
2023-02-19T03:57:11.759Z,102142.47
2023-02-19T03:59:54.020Z,102143.38
2023-02-19T04:02:37.791Z,102151.25
2023-02-19T04:05:14.101Z,102146.03
2023-02-19T04:07:46.513Z,102148.59
2023-02-19T04:10:16.401Z,102145.97
2023-02-19T04:12:50.722Z,102150.38
2023-02-19T04:15:22.840Z,102145.16
2023-02-19T04:18:00.546Z,102149.50
2023-02-19T04:20:30.889Z,102150.38
2023-02-19T04:22:58.588Z,102143.38
2023-02-19T04:25:27.800Z,102141.63
2023-02-19T04:27:55.193Z,102142.44
2023-02-19T04:30:22.644Z,102140.63
2023-02-19T04:32:49.725Z,102135.38
2023-02-19T04:35:16.893Z,102138.84
2023-02-19T04:37:43.969Z,102139.69
2023-02-19T04:40:11.344Z,102142.31
2023-02-19T04:42:38.408Z,102130.19
2023-02-19T04:45:05.852Z,102135.44
2023-02-19T04:47:33.070Z,102131.97
2023-02-19T04:50:00.159Z,102136.31
2023-02-19T04:52:27.262Z,102142.44
2023-02-19T04:54:54.388Z,102135.44
2023-02-19T04:57:21.489Z,102138.09
2023-02-19T04:59:48.576Z,102138.13
2023-02-19T05:02:15.740Z,102143.34
2023-02-19T05:04:42.905Z,102139.03
2023-02-19T05:07:10.330Z,102139.00
2023-02-19T05:09:37.456Z,102139.03
2023-02-19T05:12:04.641Z,102136.38
2023-02-19T05:14:31.729Z,102137.25
2023-02-19T05:16:58.818Z,102138.88
2023-02-19T05:19:25.861Z,102139.75
2023-02-19T05:21:52.952Z,102132.72
2023-02-19T05:24:20.113Z,102137.13
2023-02-19T05:26:48.216Z,102134.50
2023-02-19T05:29:15.451Z,102135.41
2023-02-19T05:31:42.610Z,102139.72
2023-02-19T05:34:09.776Z,102131.06
2023-02-19T05:36:37.532Z,102133.69
2023-02-19T05:39:06.238Z,102129.28
2023-02-19T05:41:33.369Z,102117.06
2023-02-19T05:44:00.645Z,102120.56
2023-02-19T05:46:32.573Z,102116.22
2023-02-19T05:48:59.750Z,102120.63
2023-02-19T05:51:27.583Z,102126.75
2023-02-19T05:53:56.324Z,102123.28
2023-02-19T05:56:33.977Z,102124.97
2023-02-19T05:59:03.994Z,102115.34
2023-02-19T06:01:31.227Z,102121.50
2023-02-19T06:03:58.494Z,102121.50
2023-02-19T06:06:27.278Z,102120.66
2023-02-19T06:08:55.142Z,102108.50
2023-02-19T06:11:23.325Z,102113.66
2023-02-19T06:13:50.768Z,102110.16
2023-02-19T06:16:18.787Z,102114.47
2023-02-19T06:18:46.166Z,102100.53
2023-02-19T06:21:15.088Z,102116.22
2023-02-19T06:23:43.232Z,102116.22
2023-02-19T06:26:19.837Z,102116.19
2023-02-19T06:28:49.234Z,102124.03
2023-02-19T06:31:17.113Z,102125.75
2023-02-19T06:33:44.903Z,102124.00
2023-02-19T06:36:17.819Z,102113.50
2023-02-19T06:38:45.208Z,102119.56
2023-02-19T06:41:13.439Z,102115.13
2023-02-19T06:43:40.912Z,102123.88
2023-02-19T06:46:08.184Z,102124.72
2023-02-19T06:48:35.614Z,102114.22
2023-02-19T06:51:03.119Z,102113.25
2023-02-19T06:53:30.381Z,102105.38
2023-02-19T06:56:03.509Z,102100.94
2023-02-19T06:58:31.439Z,102106.97
2023-02-19T07:00:58.973Z,102110.34
2023-02-19T07:03:26.522Z,102104.94
2023-02-19T07:05:53.778Z,102107.50
2023-02-19T07:08:21.060Z,102108.25
2023-02-19T07:10:56.541Z,102114.16
2023-02-19T07:13:25.183Z,102112.34
2023-02-19T07:15:57.631Z,102112.13
2023-02-19T07:18:24.815Z,102104.16
2023-02-19T07:20:51.890Z,102106.72
2023-02-19T07:23:18.973Z,102105.56
2023-02-19T07:25:46.066Z,102102.81
2023-02-19T07:28:13.152Z,102102.72
2023-02-19T07:30:40.275Z,102110.41
2023-02-19T07:33:10.112Z,102107.59
2023-02-19T07:35:37.596Z,102101.19
2023-02-19T07:38:04.668Z,102108.81
2023-02-19T07:40:31.732Z,102100.47
2023-02-19T07:43:00.146Z,102100.91
2023-02-19T07:45:27.305Z,102100.03
2023-02-19T07:47:54.445Z,102098.78
2023-02-19T07:50:21.608Z,102102.75
2023-02-19T07:52:48.676Z,102101.50
2023-02-19T07:55:15.803Z,102109.84
2023-02-19T07:57:42.909Z,102108.81
2023-02-19T08:00:10.729Z,102109.28
2023-02-19T08:02:58.934Z,102097.97
2023-02-19T08:05:30.669Z,102100.03
2023-02-19T08:07:59.288Z,102099.78
2023-02-19T08:10:45.943Z,102109.00
2023-02-19T08:13:25.188Z,102097.59
2023-02-19T08:16:18.381Z,102101.41
2023-02-19T08:18:49.436Z,102101.44
2023-02-19T08:21:20.454Z,102099.91
2023-02-19T08:23:49.935Z,102096.53
2023-02-19T08:26:18.256Z,102103.91
2023-02-19T08:28:45.568Z,102098.25
2023-02-19T08:31:13.082Z,102099.91
2023-02-19T08:33:40.788Z,102093.97
2023-02-19T08:36:09.372Z,102092.69
2023-02-19T08:38:36.724Z,102088.50
2023-02-19T08:41:09.707Z,102097.59
2023-02-19T08:43:37.157Z,102090.56
2023-02-19T08:46:05.090Z,102087.31
2023-02-19T08:48:32.715Z,102096.56
2023-02-19T08:51:03.860Z,102096.59
2023-02-19T08:53:32.485Z,102097.38
2023-02-19T08:56:06.872Z,102088.22
2023-02-19T08:58:34.073Z,102094.41
2023-02-19T09:01:01.217Z,102091.13
2023-02-19T09:03:28.395Z,102075.34
2023-02-19T09:05:55.476Z,102086.75
2023-02-19T09:08:22.551Z,102083.41
2023-02-19T09:11:04.495Z,102081.56
2023-02-19T09:13:31.651Z,102086.25
2023-02-19T09:15:58.832Z,102086.59
2023-02-19T09:18:26.339Z,102078.19
2023-02-19T09:20:53.468Z,102083.59
2023-02-19T09:23:20.594Z,102082.72
2023-02-19T09:25:47.653Z,102078.19
2023-02-19T09:28:15.546Z,102085.59
2023-02-19T09:30:42.668Z,102088.88
2023-02-19T09:33:09.768Z,102092.03
2023-02-19T09:35:39.695Z,102087.22
2023-02-19T09:38:07.120Z,102082.84
2023-02-19T09:40:35.650Z,102080.00
2023-02-19T09:43:09.757Z,102090.31
2023-02-19T09:45:38.105Z,102074.00
2023-02-19T09:48:06.369Z,102076.31
2023-02-19T09:50:40.864Z,102065.19
2023-02-19T09:53:16.952Z,102063.31
2023-02-19T09:55:44.967Z,102067.63
2023-02-19T09:58:25.698Z,102064.47
2023-02-19T10:00:55.256Z,102071.13
2023-02-19T10:03:39.125Z,102064.22
2023-02-19T10:06:12.265Z,102051.53
2023-02-19T10:08:40.400Z,102055.22
2023-02-19T10:11:11.774Z,102051.53
2023-02-19T10:13:46.701Z,102053.03
2023-02-19T10:16:17.516Z,102034.69
2023-02-19T10:18:46.405Z,102040.19
2023-02-19T10:21:23.083Z,102035.03
2023-02-19T10:23:55.567Z,102042.66
2023-02-19T10:26:24.153Z,102039.34
2023-02-19T10:28:51.410Z,102044.69
2023-02-19T10:31:21.963Z,102046.41
2023-02-19T10:33:58.076Z,102031.97
2023-02-19T10:36:44.869Z,102018.16
2023-02-19T10:39:30.459Z,102021.94
2023-02-19T10:41:58.721Z,102026.06
2023-02-19T10:44:29.072Z,102028.22
2023-02-19T10:46:59.227Z,102022.56
2023-02-19T10:49:30.121Z,102024.84
2023-02-19T10:52:02.436Z,102021.59
2023-02-19T10:54:32.520Z,102019.06
2023-02-19T10:57:14.738Z,102019.00
2023-02-19T11:00:01.120Z,102013.16
2023-02-19T11:02:30.182Z,102009.75
2023-02-19T11:05:09.174Z,102009.91
2023-02-19T11:07:37.537Z,101999.75
2023-02-19T11:10:07.076Z,101993.41
2023-02-19T11:12:35.048Z,101995.34
2023-02-19T11:15:28.712Z,101981.66
2023-02-19T11:18:11.949Z,101986.16
2023-02-19T11:20:54.581Z,101969.06
2023-02-19T11:23:37.462Z,101978.19
2023-02-19T11:26:18.724Z,101970.97
2023-02-19T11:28:45.801Z,101971.91
2023-02-19T11:31:20.277Z,101972.47
2023-02-19T11:34:02.542Z,101962.56
2023-02-19T11:36:31.055Z,101960.47
2023-02-19T11:39:02.684Z,101958.72
2023-02-19T11:42:07.770Z,101948.94
2023-02-19T11:44:58.074Z,101947.88
2023-02-19T11:47:55.798Z,101943.25
2023-02-19T11:50:44.477Z,101938.88
2023-02-19T11:53:28.950Z,101947.78
2023-02-19T11:56:14.678Z,101939.63
2023-02-19T11:58:53.581Z,101931.75
2023-02-19T12:01:29.773Z,101931.56
2023-02-19T12:04:26.877Z,101925.56
2023-02-19T12:07:27.793Z,101932.81
2023-02-19T12:10:00.660Z,101922.25
2023-02-19T12:12:37.856Z,101912.53
2023-02-19T12:15:25.273Z,101914.31
2023-02-19T12:18:04.578Z,101911.56
2023-02-19T12:20:50.157Z,101912.00
2023-02-19T12:23:49.349Z,101906.00
2023-02-19T12:26:16.363Z,101913.25
2023-02-19T12:29:23.035Z,101903.06
2023-02-19T12:31:58.801Z,101907.25
2023-02-19T12:34:31.582Z,101906.38
2023-02-19T12:37:05.413Z,101894.97
2023-02-19T12:40:05.330Z,101884.03
2023-02-19T12:43:08.944Z,101891.50
2023-02-19T12:45:42.705Z,101894.13
2023-02-19T12:48:27.985Z,101899.31
2023-02-19T12:51:05.153Z,101897.63
2023-02-19T12:53:35.250Z,101894.53
2023-02-19T12:56:10.589Z,101900.00
2023-02-19T12:58:45.689Z,101894.63
2023-02-19T13:01:23.233Z,101886.81
2023-02-19T13:04:01.991Z,101895.94
2023-02-19T13:06:41.654Z,101892.94
2023-02-19T13:09:23.597Z,101890.66
2023-02-19T13:12:01.758Z,101890.38
2023-02-19T13:14:28.778Z,101879.78
2023-02-19T13:17:04.210Z,101882.25
2023-02-19T13:19:32.844Z,101885.69
2023-02-19T13:22:34.713Z,101879.47
2023-02-19T13:25:03.444Z,101871.75
2023-02-19T13:27:42.334Z,101863.19
2023-02-19T13:30:33.396Z,101863.97
2023-02-19T13:33:15.805Z,101855.81
2023-02-19T13:36:12.581Z,101852.72
2023-02-19T13:38:43.476Z,101848.03
2023-02-19T13:41:31.659Z,101846.97
2023-02-19T13:44:16.518Z,101846.31
2023-02-19T13:46:46.177Z,101844.38
2023-02-19T13:49:42.493Z,101840.44
2023-02-19T13:52:28.069Z,101843.53
2023-02-19T13:55:32.659Z,101848.47
2023-02-19T13:58:33.747Z,101847.84
2023-02-19T14:01:03.656Z,101844.63
2023-02-19T14:03:54.618Z,101852.09
2023-02-19T14:06:21.824Z,101851.28
2023-02-19T14:08:56.622Z,101855.72
2023-02-19T14:11:41.877Z,101842.44
2023-02-19T14:14:37.666Z,101836.91
2023-02-19T14:17:24.420Z,101822.00
2023-02-19T14:20:00.300Z,101826.69
2023-02-19T14:22:52.427Z,101826.56
2023-02-19T14:25:31.778Z,101835.44
2023-02-19T14:28:11.293Z,101830.56
2023-02-19T14:31:00.994Z,101824.84
2023-02-19T14:34:03.144Z,101826.34
2023-02-19T14:36:48.858Z,101824.84
2023-02-19T14:39:26.044Z,101822.56
2023-02-19T14:41:57.120Z,101816.66
2023-02-19T14:44:30.078Z,101818.88
2023-02-19T14:47:05.432Z,101813.25
2023-02-19T14:49:35.201Z,101809.13
2023-02-19T14:52:10.560Z,101799.88
2023-02-19T14:54:50.753Z,101809.66
2023-02-19T14:57:22.050Z,101798.97
2023-02-19T14:59:58.616Z,101803.97
2023-02-19T15:02:27.523Z,101798.72
2023-02-19T15:04:55.399Z,101797.06
2023-02-19T15:07:27.560Z,101789.25
2023-02-19T15:09:58.644Z,101788.75
2023-02-19T15:12:31.718Z,101791.03
2023-02-19T15:15:03.000Z,101786.88
2023-02-19T15:17:33.604Z,101788.81
2023-02-19T15:20:05.207Z,101792.59
2023-02-19T15:22:32.697Z,101786.88
2023-02-19T15:25:05.095Z,101804.72
2023-02-19T15:27:34.233Z,101805.22
2023-02-19T15:30:01.353Z,101810.22
2023-02-19T15:32:28.736Z,101808.81
2023-02-19T15:35:01.422Z,101811.53
2023-02-19T15:37:35.188Z,101808.41
2023-02-19T15:40:07.531Z,101807.38
2023-02-19T15:42:37.141Z,101807.50
2023-02-19T15:45:17.639Z,101805.16
2023-02-19T15:48:04.478Z,101810.06
2023-02-19T15:50:39.190Z,101808.69
2023-02-19T15:53:29.548Z,101810.19
2023-02-19T15:56:09.241Z,101807.03
2023-02-19T15:58:46.989Z,101806.94
2023-02-19T16:01:40.395Z,101814.69
2023-02-19T16:04:14.536Z,101823.84
2023-02-19T16:07:01.769Z,101818.19
2023-02-19T16:09:29.060Z,101819.25
2023-02-19T16:11:59.405Z,101809.09
2023-02-19T16:14:32.227Z,101815.44
2023-02-19T16:17:11.371Z,101818.13
2023-02-19T16:19:58.553Z,101822.53
2023-02-19T16:22:29.218Z,101815.00
2023-02-19T16:25:00.488Z,101813.69
2023-02-19T16:27:31.138Z,101814.22
2023-02-19T16:30:01.076Z,101820.44
2023-02-19T16:32:28.423Z,101827.63
2023-02-19T16:34:55.661Z,101821.56
2023-02-19T16:37:33.097Z,101822.28
2023-02-19T16:40:09.052Z,101829.47
2023-02-19T16:42:56.924Z,101843.75
2023-02-19T16:45:27.342Z,101862.97
2023-02-19T16:47:54.597Z,101863.78
2023-02-19T16:50:24.819Z,101871.03
2023-02-19T16:52:54.349Z,101865.63
2023-02-19T16:55:22.251Z,101861.72
2023-02-19T16:57:49.981Z,101872.94
2023-02-19T17:00:22.209Z,101867.63
2023-02-19T17:02:51.955Z,101862.81
2023-02-19T17:05:20.732Z,101868.50
2023-02-19T17:07:48.482Z,101870.00
2023-02-19T17:10:22.944Z,101885.53
2023-02-19T17:12:50.891Z,101887.47
2023-02-19T17:15:18.382Z,101880.69
2023-02-19T17:17:45.572Z,101883.88
2023-02-19T17:20:18.269Z,101885.16
2023-02-19T17:22:45.365Z,101891.59
2023-02-19T17:25:12.464Z,101881.78
2023-02-19T17:27:41.091Z,101884.59
2023-02-19T17:30:16.527Z,101891.19
2023-02-19T17:32:43.634Z,101901.16
2023-02-19T17:35:10.828Z,101912.06
2023-02-19T17:37:37.942Z,101922.03
2023-02-19T17:40:31.741Z,101937.06
2023-02-19T17:42:59.616Z,101944.44
2023-02-19T17:45:26.792Z,101942.41
2023-02-19T17:47:53.916Z,101939.31
2023-02-19T17:50:24.567Z,101946.50
2023-02-19T17:52:51.891Z,101955.78
2023-02-19T17:55:19.594Z,101968.03
2023-02-19T17:57:51.046Z,101977.25
2023-02-19T18:00:21.373Z,101968.38
2023-02-19T18:02:48.560Z,101963.75
2023-02-19T18:05:15.805Z,101982.66
2023-02-19T18:07:43.552Z,101989.34
2023-02-19T18:10:11.263Z,101997.28
2023-02-19T18:12:39.648Z,101994.50
2023-02-19T18:15:08.291Z,102010.97
2023-02-19T18:17:35.612Z,102015.59
2023-02-19T18:20:04.613Z,102008.63
2023-02-19T18:22:32.306Z,102013.94
2023-02-19T18:24:59.568Z,102012.66
2023-02-19T18:27:26.727Z,102014.75
2023-02-19T18:29:55.453Z,102014.88
2023-02-19T18:32:25.044Z,102004.63
2023-02-19T18:34:55.193Z,102004.78
2023-02-19T18:37:24.472Z,102008.44
2023-02-19T18:39:52.281Z,102000.66
2023-02-19T18:42:20.968Z,102006.91
2023-02-19T18:44:49.017Z,102003.47
2023-02-19T18:47:17.592Z,102003.63
2023-02-19T18:49:53.224Z,102000.94
2023-02-19T18:52:23.831Z,101994.75
2023-02-19T18:54:52.191Z,102000.28
2023-02-19T18:57:21.326Z,102007.53
2023-02-19T18:59:49.024Z,102005.94
2023-02-19T19:02:16.380Z,102011.44
2023-02-19T19:04:48.154Z,102007.34
2023-02-19T19:07:15.368Z,101998.84
2023-02-19T19:09:42.460Z,102005.25
2023-02-19T19:12:09.618Z,101999.28
2023-02-19T19:14:37.392Z,102009.13
2023-02-19T19:17:04.759Z,102012.94
2023-02-19T19:19:31.922Z,102022.09
2023-02-19T19:21:58.993Z,102023.91
2023-02-19T19:24:26.195Z,102032.88
2023-02-19T19:26:53.492Z,102033.63
2023-02-19T19:29:22.077Z,102039.13
2023-02-19T19:31:49.767Z,102048.91
2023-02-19T19:34:17.925Z,102047.19
2023-02-19T19:36:45.575Z,102050.88
2023-02-19T19:39:13.437Z,102045.09
2023-02-19T19:41:40.507Z,102052.31
2023-02-19T19:44:08.705Z,102058.31
2023-02-19T19:46:43.055Z,102056.47
2023-02-19T19:49:10.173Z,102057.44
2023-02-19T19:51:37.376Z,102060.22
2023-02-19T19:54:04.960Z,102069.97
2023-02-19T19:56:32.094Z,102076.19
2023-02-19T19:58:59.202Z,102080.84
2023-02-19T20:01:26.282Z,102074.94
2023-02-19T20:03:53.372Z,102081.03
2023-02-19T20:06:28.843Z,102085.28
2023-02-19T20:08:56.677Z,102094.19
2023-02-19T20:11:23.982Z,102093.44
2023-02-19T20:13:51.486Z,102101.56
2023-02-19T20:16:24.288Z,102114.97
2023-02-19T20:18:51.363Z,102109.91
2023-02-19T20:21:18.602Z,102108.00
2023-02-19T20:23:45.899Z,102096.88
2023-02-19T20:26:13.032Z,102102.00
2023-02-19T20:28:45.046Z,102108.97
2023-02-19T20:31:12.590Z,102114.22
2023-02-19T20:33:39.890Z,102113.28
2023-02-19T20:36:07.621Z,102125.47
2023-02-19T20:38:34.686Z,102139.31
2023-02-19T20:41:02.567Z,102138.00
2023-02-19T20:43:29.665Z,102142.56
2023-02-19T20:45:56.730Z,102144.66
2023-02-19T20:48:23.850Z,102135.97
2023-02-19T20:50:50.920Z,102143.94
2023-02-19T20:53:17.994Z,102156.19
2023-02-19T20:55:45.081Z,102161.19
2023-02-19T20:58:12.201Z,102180.72
2023-02-19T21:00:39.331Z,102181.22
2023-02-19T21:03:08.969Z,102189.13
2023-02-19T21:05:37.026Z,102184.28
2023-02-19T21:08:04.908Z,102181.63
2023-02-19T21:10:31.982Z,102182.63
2023-02-19T21:12:59.069Z,102180.28
2023-02-19T21:15:26.165Z,102162.09
2023-02-19T21:17:53.257Z,102181.25
2023-02-19T21:20:20.888Z,102193.31
2023-02-19T21:22:47.976Z,102187.19
2023-02-19T21:25:15.110Z,102187.25
2023-02-19T21:27:42.201Z,102185.63
2023-02-19T21:30:09.544Z,102171.88
2023-02-19T21:32:36.712Z,102173.03
2023-02-19T21:35:04.060Z,102184.63
2023-02-19T21:37:31.316Z,102191.72
2023-02-19T21:40:00.341Z,102200.09
2023-02-19T21:42:27.600Z,102201.22
2023-02-19T21:44:54.786Z,102188.34
2023-02-19T21:47:21.870Z,102200.88
2023-02-19T21:49:48.980Z,102205.84
2023-02-19T21:52:16.139Z,102205.00
2023-02-19T21:54:43.228Z,102212.75
2023-02-19T21:57:10.406Z,102212.56
2023-02-19T21:59:37.552Z,102208.19
2023-02-19T22:02:04.674Z,102213.16
2023-02-19T22:04:31.759Z,102209.53
2023-02-19T22:06:58.874Z,102211.16
2023-02-19T22:09:26.013Z,102203.09
2023-02-19T22:11:53.113Z,102203.03
2023-02-19T22:14:20.324Z,102200.34
2023-02-19T22:16:47.504Z,102193.19
2023-02-19T22:19:14.678Z,102200.19
2023-02-19T22:21:44.330Z,102204.53
2023-02-19T22:24:21.306Z,102199.94
2023-02-19T22:26:50.516Z,102205.13
2023-02-19T22:29:18.041Z,102205.84
2023-02-19T22:31:45.262Z,102207.72
2023-02-19T22:34:12.571Z,102214.88
2023-02-19T22:36:40.376Z,102200.06
2023-02-19T22:39:15.102Z,102208.09
2023-02-19T22:41:43.306Z,102208.19
2023-02-19T22:44:11.208Z,102189.88
2023-02-19T22:46:38.283Z,102202.19
2023-02-19T22:49:06.575Z,102197.84
2023-02-19T22:51:35.540Z,102208.47
2023-02-19T22:54:02.697Z,102218.09
2023-02-19T22:56:29.905Z,102215.47
2023-02-19T22:58:58.740Z,102221.78
2023-02-19T23:01:25.892Z,102220.88
2023-02-19T23:03:55.423Z,102213.84
2023-02-19T23:06:30.812Z,102215.75
2023-02-19T23:09:01.868Z,102214.03
2023-02-19T23:11:32.376Z,102215.81
2023-02-19T23:13:59.530Z,102223.63
2023-02-19T23:16:27.310Z,102213.16
2023-02-19T23:18:55.262Z,102223.75
2023-02-19T23:21:23.098Z,102220.44
2023-02-19T23:23:50.600Z,102204.78
2023-02-19T23:26:18.298Z,102215.44
2023-02-19T23:28:46.430Z,102225.06
2023-02-19T23:31:14.366Z,102220.78
2023-02-19T23:33:42.392Z,102222.63
2023-02-19T23:36:10.690Z,102214.84
2023-02-19T23:38:38.076Z,102219.34
2023-02-19T23:41:10.551Z,102228.25
2023-02-19T23:43:38.049Z,102216.13
2023-02-19T23:46:05.636Z,102210.94
2023-02-19T23:48:32.938Z,102212.69
2023-02-19T23:51:00.276Z,102212.66
2023-02-19T23:53:27.427Z,102215.22
2023-02-19T23:55:54.846Z,102208.91
2023-02-19T23:58:21.917Z,102195.19
